sensor_id;sensor_type;location;lat;lon;timestamp;temperature;humidity
67862;DHT22;54665;51.462;6.698;2022-07-29T00:00:09;18.66;54.42
67862;DHT22;54665;51.462;6.698;2022-07-29T00:02:35;18.72;53.90
67862;DHT22;54665;51.462;6.698;2022-07-29T00:05:01;18.80;53.46
67862;DHT22;54665;51.462;6.698;2022-07-29T00:07:27;18.82;53.69
67862;DHT22;54665;51.462;6.698;2022-07-29T00:09:52;18.79;53.43
67862;DHT22;54665;51.462;6.698;2022-07-29T00:12:23;18.77;53.40
67862;DHT22;54665;51.462;6.698;2022-07-29T00:14:49;18.76;53.51
67862;DHT22;54665;51.462;6.698;2022-07-29T00:17:15;18.73;53.36
67862;DHT22;54665;51.462;6.698;2022-07-29T00:19:40;18.75;53.64
67862;DHT22;54665;51.462;6.698;2022-07-29T00:22:05;18.69;53.63
67862;DHT22;54665;51.462;6.698;2022-07-29T00:24:31;18.70;53.61
67862;DHT22;54665;51.462;6.698;2022-07-29T00:26:56;18.70;53.42
67862;DHT22;54665;51.462;6.698;2022-07-29T00:29:22;18.72;53.62
67862;DHT22;54665;51.462;6.698;2022-07-29T00:31:47;18.70;53.48
67862;DHT22;54665;51.462;6.698;2022-07-29T00:34:12;18.70;53.40
67862;DHT22;54665;51.462;6.698;2022-07-29T00:36:56;18.63;53.82
67862;DHT22;54665;51.462;6.698;2022-07-29T00:39:22;18.60;53.89
67862;DHT22;54665;51.462;6.698;2022-07-29T00:41:47;18.55;53.96
67862;DHT22;54665;51.462;6.698;2022-07-29T00:44:13;18.52;54.26
67862;DHT22;54665;51.462;6.698;2022-07-29T00:46:39;18.49;54.44
67862;DHT22;54665;51.462;6.698;2022-07-29T00:49:04;18.42;54.49
67862;DHT22;54665;51.462;6.698;2022-07-29T00:51:30;18.39;54.60
67862;DHT22;54665;51.462;6.698;2022-07-29T00:53:55;18.37;54.56
67862;DHT22;54665;51.462;6.698;2022-07-29T00:56:22;18.28;54.91
67862;DHT22;54665;51.462;6.698;2022-07-29T00:58:48;18.24;55.04
67862;DHT22;54665;51.462;6.698;2022-07-29T01:01:15;18.19;55.24
67862;DHT22;54665;51.462;6.698;2022-07-29T01:03:40;18.14;55.34
67862;DHT22;54665;51.462;6.698;2022-07-29T01:06:06;18.22;55.14
67862;DHT22;54665;51.462;6.698;2022-07-29T01:08:32;18.19;55.58
67862;DHT22;54665;51.462;6.698;2022-07-29T01:10:59;18.22;55.20
67862;DHT22;54665;51.462;6.698;2022-07-29T01:13:25;18.17;55.48
67862;DHT22;54665;51.462;6.698;2022-07-29T01:15:59;18.11;55.50
67862;DHT22;54665;51.462;6.698;2022-07-29T01:18:33;18.11;55.20
67862;DHT22;54665;51.462;6.698;2022-07-29T01:21:24;18.12;55.40
67862;DHT22;54665;51.462;6.698;2022-07-29T01:24:20;18.08;55.58
67862;DHT22;54665;51.462;6.698;2022-07-29T01:29:54;18.07;55.77
67862;DHT22;54665;51.462;6.698;2022-07-29T01:32:24;18.04;55.96
67862;DHT22;54665;51.462;6.698;2022-07-29T01:35:04;17.97;56.64
67862;DHT22;54665;51.462;6.698;2022-07-29T01:40:03;18.04;55.98
67862;DHT22;54665;51.462;6.698;2022-07-29T01:42:39;18.04;56.58
67862;DHT22;54665;51.462;6.698;2022-07-29T01:48:03;18.07;55.68
67862;DHT22;54665;51.462;6.698;2022-07-29T01:50:34;18.12;55.96
67862;DHT22;54665;51.462;6.698;2022-07-29T01:53:03;18.15;55.49
67862;DHT22;54665;51.462;6.698;2022-07-29T01:55:34;18.11;55.51
67862;DHT22;54665;51.462;6.698;2022-07-29T01:58:01;18.12;55.81
67862;DHT22;54665;51.462;6.698;2022-07-29T02:00:27;18.14;55.83
67862;DHT22;54665;51.462;6.698;2022-07-29T02:02:54;18.14;55.83
67862;DHT22;54665;51.462;6.698;2022-07-29T02:05:22;18.09;56.10
67862;DHT22;54665;51.462;6.698;2022-07-29T02:07:49;18.05;56.10
67862;DHT22;54665;51.462;6.698;2022-07-29T02:10:18;18.09;55.93
67862;DHT22;54665;51.462;6.698;2022-07-29T02:12:44;18.14;56.05
67862;DHT22;54665;51.462;6.698;2022-07-29T02:15:11;18.11;55.67
67862;DHT22;54665;51.462;6.698;2022-07-29T02:17:46;18.12;56.39
67862;DHT22;54665;51.462;6.698;2022-07-29T02:20:14;18.17;55.49
67862;DHT22;54665;51.462;6.698;2022-07-29T02:22:41;18.15;55.43
67862;DHT22;54665;51.462;6.698;2022-07-29T02:25:08;18.14;55.76
67862;DHT22;54665;51.462;6.698;2022-07-29T02:27:35;18.15;56.06
67862;DHT22;54665;51.462;6.698;2022-07-29T02:30:01;18.19;56.65
67862;DHT22;54665;51.462;6.698;2022-07-29T02:32:29;18.18;56.92
67862;DHT22;54665;51.462;6.698;2022-07-29T02:34:56;18.11;56.70
67862;DHT22;54665;51.462;6.698;2022-07-29T02:37:23;18.04;57.16
67862;DHT22;54665;51.462;6.698;2022-07-29T02:39:49;17.98;57.20
67862;DHT22;54665;51.462;6.698;2022-07-29T02:42:18;17.90;57.40
67862;DHT22;54665;51.462;6.698;2022-07-29T02:44:44;17.87;57.98
67862;DHT22;54665;51.462;6.698;2022-07-29T02:49:42;17.80;58.06
67862;DHT22;54665;51.462;6.698;2022-07-29T02:52:27;17.69;58.61
67862;DHT22;54665;51.462;6.698;2022-07-29T02:58:02;17.47;60.00
67862;DHT22;54665;51.462;6.698;2022-07-29T03:00:29;17.25;62.26
67862;DHT22;54665;51.462;6.698;2022-07-29T03:02:58;16.91;64.21
67862;DHT22;54665;51.462;6.698;2022-07-29T03:05:24;16.72;65.42
67862;DHT22;54665;51.462;6.698;2022-07-29T03:08:11;16.55;66.38
67862;DHT22;54665;51.462;6.698;2022-07-29T03:10:43;16.50;67.55
67862;DHT22;54665;51.462;6.698;2022-07-29T03:13:09;16.48;67.78
67862;DHT22;54665;51.462;6.698;2022-07-29T03:15:36;16.47;66.96
67862;DHT22;54665;51.462;6.698;2022-07-29T03:18:06;16.47;67.12
67862;DHT22;54665;51.462;6.698;2022-07-29T03:20:32;16.41;67.30
67862;DHT22;54665;51.462;6.698;2022-07-29T03:22:58;16.37;67.23
67862;DHT22;54665;51.462;6.698;2022-07-29T03:25:23;16.38;67.01
67862;DHT22;54665;51.462;6.698;2022-07-29T03:27:48;16.40;67.25
67862;DHT22;54665;51.462;6.698;2022-07-29T03:30:14;16.43;67.68
67862;DHT22;54665;51.462;6.698;2022-07-29T03:32:41;16.44;67.55
67862;DHT22;54665;51.462;6.698;2022-07-29T03:35:07;16.44;67.52
67862;DHT22;54665;51.462;6.698;2022-07-29T03:37:33;16.43;67.27
67862;DHT22;54665;51.462;6.698;2022-07-29T03:40:00;16.48;67.49
67862;DHT22;54665;51.462;6.698;2022-07-29T03:42:30;16.51;67.44
67862;DHT22;54665;51.462;6.698;2022-07-29T03:44:58;16.51;67.17
67862;DHT22;54665;51.462;6.698;2022-07-29T03:47:25;16.51;67.35
67862;DHT22;54665;51.462;6.698;2022-07-29T03:49:54;16.51;67.20
67862;DHT22;54665;51.462;6.698;2022-07-29T03:52:22;16.48;68.01
67862;DHT22;54665;51.462;6.698;2022-07-29T03:54:47;16.51;66.57
67862;DHT22;54665;51.462;6.698;2022-07-29T03:57:14;16.54;66.17
67862;DHT22;54665;51.462;6.698;2022-07-29T03:59:41;16.64;65.79
67862;DHT22;54665;51.462;6.698;2022-07-29T04:02:09;16.65;66.52
67862;DHT22;54665;51.462;6.698;2022-07-29T04:04:36;16.60;66.34
67862;DHT22;54665;51.462;6.698;2022-07-29T04:07:02;16.53;67.03
67862;DHT22;54665;51.462;6.698;2022-07-29T04:09:27;16.43;67.98
67862;DHT22;54665;51.462;6.698;2022-07-29T04:11:52;16.37;68.13
67862;DHT22;54665;51.462;6.698;2022-07-29T04:14:18;16.23;69.59
67862;DHT22;54665;51.462;6.698;2022-07-29T04:16:43;16.10;71.16
67862;DHT22;54665;51.462;6.698;2022-07-29T04:19:10;15.89;72.59
67862;DHT22;54665;51.462;6.698;2022-07-29T04:21:39;15.63;74.32
67862;DHT22;54665;51.462;6.698;2022-07-29T04:24:06;15.51;74.87
67862;DHT22;54665;51.462;6.698;2022-07-29T04:26:32;15.44;75.71
67862;DHT22;54665;51.462;6.698;2022-07-29T04:28:57;15.27;77.14
67862;DHT22;54665;51.462;6.698;2022-07-29T04:31:23;15.14;77.81
67862;DHT22;54665;51.462;6.698;2022-07-29T04:33:48;15.10;78.48
67862;DHT22;54665;51.462;6.698;2022-07-29T04:36:13;15.01;76.82
67862;DHT22;54665;51.462;6.698;2022-07-29T04:38:39;14.98;78.44
67862;DHT22;54665;51.462;6.698;2022-07-29T04:41:05;14.97;79.26
67862;DHT22;54665;51.462;6.698;2022-07-29T04:43:32;14.93;79.48
67862;DHT22;54665;51.462;6.698;2022-07-29T04:45:58;14.93;79.09
67862;DHT22;54665;51.462;6.698;2022-07-29T04:48:24;14.87;79.02
67862;DHT22;54665;51.462;6.698;2022-07-29T04:50:49;14.81;79.17
67862;DHT22;54665;51.462;6.698;2022-07-29T04:53:15;14.79;78.44
67862;DHT22;54665;51.462;6.698;2022-07-29T04:55:40;14.80;78.59
67862;DHT22;54665;51.462;6.698;2022-07-29T04:58:05;14.83;78.25
67862;DHT22;54665;51.462;6.698;2022-07-29T05:00:32;14.88;77.26
67862;DHT22;54665;51.462;6.698;2022-07-29T05:02:58;14.88;76.99
67862;DHT22;54665;51.462;6.698;2022-07-29T05:05:24;14.87;77.13
67862;DHT22;54665;51.462;6.698;2022-07-29T05:07:49;14.79;79.27
67862;DHT22;54665;51.462;6.698;2022-07-29T05:10:14;14.69;79.69
67862;DHT22;54665;51.462;6.698;2022-07-29T05:12:40;14.79;81.06
67862;DHT22;54665;51.462;6.698;2022-07-29T05:15:06;14.83;81.97
67862;DHT22;54665;51.462;6.698;2022-07-29T05:17:31;14.85;80.67
67862;DHT22;54665;51.462;6.698;2022-07-29T05:19:57;14.91;79.56
67862;DHT22;54665;51.462;6.698;2022-07-29T05:22:22;14.94;79.42
67862;DHT22;54665;51.462;6.698;2022-07-29T05:24:48;14.95;80.20
67862;DHT22;54665;51.462;6.698;2022-07-29T05:27:13;14.91;80.47
67862;DHT22;54665;51.462;6.698;2022-07-29T05:29:39;14.94;80.79
67862;DHT22;54665;51.462;6.698;2022-07-29T05:32:04;15.03;81.61
67862;DHT22;54665;51.462;6.698;2022-07-29T05:34:30;15.05;81.34
67862;DHT22;54665;51.462;6.698;2022-07-29T05:36:56;15.05;82.29
67862;DHT22;54665;51.462;6.698;2022-07-29T05:39:22;15.04;82.78
67862;DHT22;54665;51.462;6.698;2022-07-29T05:41:48;15.03;82.62
67862;DHT22;54665;51.462;6.698;2022-07-29T05:44:14;14.97;81.83
67862;DHT22;54665;51.462;6.698;2022-07-29T05:46:39;14.91;80.48
67862;DHT22;54665;51.462;6.698;2022-07-29T05:49:05;14.93;79.59
67862;DHT22;54665;51.462;6.698;2022-07-29T05:51:32;14.93;79.07
67862;DHT22;54665;51.462;6.698;2022-07-29T05:53:57;14.98;78.55
67862;DHT22;54665;51.462;6.698;2022-07-29T05:56:24;14.97;79.23
67862;DHT22;54665;51.462;6.698;2022-07-29T05:58:49;14.97;79.87
67862;DHT22;54665;51.462;6.698;2022-07-29T06:01:14;15.05;79.25
67862;DHT22;54665;51.462;6.698;2022-07-29T06:03:40;15.03;79.41
67862;DHT22;54665;51.462;6.698;2022-07-29T06:06:06;15.04;78.81
67862;DHT22;54665;51.462;6.698;2022-07-29T06:08:33;15.04;78.84
67862;DHT22;54665;51.462;6.698;2022-07-29T06:10:59;15.11;78.31
67862;DHT22;54665;51.462;6.698;2022-07-29T06:13:25;15.20;78.04
67862;DHT22;54665;51.462;6.698;2022-07-29T06:15:50;15.31;77.96
67862;DHT22;54665;51.462;6.698;2022-07-29T06:18:16;15.44;77.20
67862;DHT22;54665;51.462;6.698;2022-07-29T06:20:41;15.54;76.44
67862;DHT22;54665;51.462;6.698;2022-07-29T06:23:07;15.72;77.11
67862;DHT22;54665;51.462;6.698;2022-07-29T06:25:33;15.83;76.94
67862;DHT22;54665;51.462;6.698;2022-07-29T06:28:00;15.99;77.82
67862;DHT22;54665;51.462;6.698;2022-07-29T06:30:26;16.14;77.58
67862;DHT22;54665;51.462;6.698;2022-07-29T06:32:51;16.27;76.68
67862;DHT22;54665;51.462;6.698;2022-07-29T06:35:17;16.47;76.10
67862;DHT22;54665;51.462;6.698;2022-07-29T06:37:42;16.64;75.55
67862;DHT22;54665;51.462;6.698;2022-07-29T06:40:08;16.74;75.30
67862;DHT22;54665;51.462;6.698;2022-07-29T06:42:52;16.68;72.86
67862;DHT22;54665;51.462;6.698;2022-07-29T06:45:18;16.72;72.44
67862;DHT22;54665;51.462;6.698;2022-07-29T06:47:43;16.65;71.74
67862;DHT22;54665;51.462;6.698;2022-07-29T06:50:08;16.51;71.57
67862;DHT22;54665;51.462;6.698;2022-07-29T06:52:38;16.33;71.29
67862;DHT22;54665;51.462;6.698;2022-07-29T06:55:04;16.27;73.98
67862;DHT22;54665;51.462;6.698;2022-07-29T06:57:29;16.21;74.59
67862;DHT22;54665;51.462;6.698;2022-07-29T06:59:58;16.20;74.90
67862;DHT22;54665;51.462;6.698;2022-07-29T07:02:24;16.13;75.14
67862;DHT22;54665;51.462;6.698;2022-07-29T07:04:50;16.14;75.48
67862;DHT22;54665;51.462;6.698;2022-07-29T07:07:15;16.13;74.92
67862;DHT22;54665;51.462;6.698;2022-07-29T07:09:40;16.06;74.91
67862;DHT22;54665;51.462;6.698;2022-07-29T07:12:06;16.07;75.58
67862;DHT22;54665;51.462;6.698;2022-07-29T07:14:32;16.07;75.74
67862;DHT22;54665;51.462;6.698;2022-07-29T07:17:00;16.09;75.52
67862;DHT22;54665;51.462;6.698;2022-07-29T07:19:26;16.10;75.76
67862;DHT22;54665;51.462;6.698;2022-07-29T07:21:55;16.14;75.40
67862;DHT22;54665;51.462;6.698;2022-07-29T07:24:21;16.20;74.92
67862;DHT22;54665;51.462;6.698;2022-07-29T07:26:46;16.24;75.44
67862;DHT22;54665;51.462;6.698;2022-07-29T07:29:12;16.24;76.76
67862;DHT22;54665;51.462;6.698;2022-07-29T07:31:38;16.26;77.66
67862;DHT22;54665;51.462;6.698;2022-07-29T07:34:03;16.20;78.40
67862;DHT22;54665;51.462;6.698;2022-07-29T07:36:29;16.18;78.85
67862;DHT22;54665;51.462;6.698;2022-07-29T07:38:54;16.21;78.93
67862;DHT22;54665;51.462;6.698;2022-07-29T07:41:20;16.21;78.85
67862;DHT22;54665;51.462;6.698;2022-07-29T07:43:46;16.17;78.57
67862;DHT22;54665;51.462;6.698;2022-07-29T07:46:11;16.23;78.30
67862;DHT22;54665;51.462;6.698;2022-07-29T07:48:36;16.20;78.16
67862;DHT22;54665;51.462;6.698;2022-07-29T07:51:02;16.17;78.82
67862;DHT22;54665;51.462;6.698;2022-07-29T07:53:27;16.21;78.80
67862;DHT22;54665;51.462;6.698;2022-07-29T07:55:54;16.24;78.61
67862;DHT22;54665;51.462;6.698;2022-07-29T07:58:20;16.30;78.41
67862;DHT22;54665;51.462;6.698;2022-07-29T08:00:46;16.31;78.59
67862;DHT22;54665;51.462;6.698;2022-07-29T08:03:12;16.20;78.60
67862;DHT22;54665;51.462;6.698;2022-07-29T08:05:39;16.16;78.80
67862;DHT22;54665;51.462;6.698;2022-07-29T08:08:05;16.12;79.60
67862;DHT22;54665;51.462;6.698;2022-07-29T08:10:30;16.09;80.15
67862;DHT22;54665;51.462;6.698;2022-07-29T08:13:14;15.97;80.36
67862;DHT22;54665;51.462;6.698;2022-07-29T08:15:40;15.90;81.10
67862;DHT22;54665;51.462;6.698;2022-07-29T08:18:11;15.87;82.27
67862;DHT22;54665;51.462;6.698;2022-07-29T08:20:36;15.82;83.02
67862;DHT22;54665;51.462;6.698;2022-07-29T08:23:04;15.67;83.61
67862;DHT22;54665;51.462;6.698;2022-07-29T08:25:40;15.61;84.02
67862;DHT22;54665;51.462;6.698;2022-07-29T08:28:05;15.59;83.88
67862;DHT22;54665;51.462;6.698;2022-07-29T08:30:31;15.61;84.79
67862;DHT22;54665;51.462;6.698;2022-07-29T08:32:58;15.66;85.64
67862;DHT22;54665;51.462;6.698;2022-07-29T08:35:24;15.66;85.50
67862;DHT22;54665;51.462;6.698;2022-07-29T08:37:50;15.63;85.65
67862;DHT22;54665;51.462;6.698;2022-07-29T08:40:16;15.59;85.35
67862;DHT22;54665;51.462;6.698;2022-07-29T08:42:41;15.66;85.34
67862;DHT22;54665;51.462;6.698;2022-07-29T08:45:07;15.81;86.80
67862;DHT22;54665;51.462;6.698;2022-07-29T08:47:33;16.05;86.89
67862;DHT22;54665;51.462;6.698;2022-07-29T08:50:02;16.30;86.95
67862;DHT22;54665;51.462;6.698;2022-07-29T08:52:29;16.57;86.03
67862;DHT22;54665;51.462;6.698;2022-07-29T08:54:56;16.84;85.29
67862;DHT22;54665;51.462;6.698;2022-07-29T08:57:22;17.01;84.74
67862;DHT22;54665;51.462;6.698;2022-07-29T08:59:50;17.15;84.22
67862;DHT22;54665;51.462;6.698;2022-07-29T09:02:20;17.32;83.32
67862;DHT22;54665;51.462;6.698;2022-07-29T09:04:46;17.51;82.53
67862;DHT22;54665;51.462;6.698;2022-07-29T09:07:15;17.81;80.58
67862;DHT22;54665;51.462;6.698;2022-07-29T09:09:41;17.93;77.87
67862;DHT22;54665;51.462;6.698;2022-07-29T09:12:08;18.04;75.78
67862;DHT22;54665;51.462;6.698;2022-07-29T09:14:34;18.28;77.91
67862;DHT22;54665;51.462;6.698;2022-07-29T09:16:59;18.52;77.22
67862;DHT22;54665;51.462;6.698;2022-07-29T09:19:34;18.56;73.60
67862;DHT22;54665;51.462;6.698;2022-07-29T09:22:04;18.60;73.05
67862;DHT22;54665;51.462;6.698;2022-07-29T09:24:37;18.41;73.41
67862;DHT22;54665;51.462;6.698;2022-07-29T09:27:08;18.22;73.71
67862;DHT22;54665;51.462;6.698;2022-07-29T09:29:35;18.11;73.24
67862;DHT22;54665;51.462;6.698;2022-07-29T09:32:05;18.22;75.14
67862;DHT22;54665;51.462;6.698;2022-07-29T09:34:31;18.25;74.78
67862;DHT22;54665;51.462;6.698;2022-07-29T09:36:57;18.22;72.98
67862;DHT22;54665;51.462;6.698;2022-07-29T09:41:56;18.45;71.44
67862;DHT22;54665;51.462;6.698;2022-07-29T09:44:23;18.58;71.73
67862;DHT22;54665;51.462;6.698;2022-07-29T09:49:20;18.99;69.82
67862;DHT22;54665;51.462;6.698;2022-07-29T09:51:45;18.98;70.26
67862;DHT22;54665;51.462;6.698;2022-07-29T09:54:27;19.09;73.35
67862;DHT22;54665;51.462;6.698;2022-07-29T09:56:54;19.17;75.00
67862;DHT22;54665;51.462;6.698;2022-07-29T09:59:20;19.14;74.28
67862;DHT22;54665;51.462;6.698;2022-07-29T10:01:48;19.16;75.01
67862;DHT22;54665;51.462;6.698;2022-07-29T10:04:15;19.16;74.42
67862;DHT22;54665;51.462;6.698;2022-07-29T10:09:22;19.09;74.23
67862;DHT22;54665;51.462;6.698;2022-07-29T10:12:10;18.80;75.11
67862;DHT22;54665;51.462;6.698;2022-07-29T10:14:37;18.77;75.34
67862;DHT22;54665;51.462;6.698;2022-07-29T10:17:03;18.75;75.87
67862;DHT22;54665;51.462;6.698;2022-07-29T10:19:30;18.69;75.17
67862;DHT22;54665;51.462;6.698;2022-07-29T10:21:58;18.73;74.50
67862;DHT22;54665;51.462;6.698;2022-07-29T10:24:28;18.75;74.70
67862;DHT22;54665;51.462;6.698;2022-07-29T10:26:59;18.80;75.44
67862;DHT22;54665;51.462;6.698;2022-07-29T10:29:25;18.79;75.20
67862;DHT22;54665;51.462;6.698;2022-07-29T10:32:39;18.98;74.22
67862;DHT22;54665;51.462;6.698;2022-07-29T10:43:58;20.50;68.64
67862;DHT22;54665;51.462;6.698;2022-07-29T10:46:25;21.82;66.60
67862;DHT22;54665;51.462;6.698;2022-07-29T10:49:08;22.63;63.62
67862;DHT22;54665;51.462;6.698;2022-07-29T10:54:44;22.51;58.73
67862;DHT22;54665;51.462;6.698;2022-07-29T10:59:40;21.67;60.11
67862;DHT22;54665;51.462;6.698;2022-07-29T11:07:23;21.42;60.30
67862;DHT22;54665;51.462;6.698;2022-07-29T11:15:09;22.09;56.20
67862;DHT22;54665;51.462;6.698;2022-07-29T11:20:42;21.71;59.84
67862;DHT22;54665;51.462;6.698;2022-07-29T11:25:43;22.10;57.72
67862;DHT22;54665;51.462;6.698;2022-07-29T11:28:14;22.20;59.03
67862;DHT22;54665;51.462;6.698;2022-07-29T11:30:51;22.29;57.75
67862;DHT22;54665;51.462;6.698;2022-07-29T11:33:33;22.29;56.85
67862;DHT22;54665;51.462;6.698;2022-07-29T11:36:24;22.65;58.12
67862;DHT22;54665;51.462;6.698;2022-07-29T11:38:50;23.41;55.24
67862;DHT22;54665;51.462;6.698;2022-07-29T11:41:27;23.18;55.98
67862;DHT22;54665;51.462;6.698;2022-07-29T11:43:55;23.01;55.70
67862;DHT22;54665;51.462;6.698;2022-07-29T11:46:46;23.22;55.16
67862;DHT22;54665;51.462;6.698;2022-07-29T11:49:25;22.85;55.03
67862;DHT22;54665;51.462;6.698;2022-07-29T11:51:57;22.58;53.73
67862;DHT22;54665;51.462;6.698;2022-07-29T11:54:26;22.54;55.25
67862;DHT22;54665;51.462;6.698;2022-07-29T11:56:57;22.82;55.94
67862;DHT22;54665;51.462;6.698;2022-07-29T11:59:24;22.75;54.69
67862;DHT22;54665;51.462;6.698;2022-07-29T12:01:57;22.58;54.11
67862;DHT22;54665;51.462;6.698;2022-07-29T12:04:23;22.18;55.23
67862;DHT22;54665;51.462;6.698;2022-07-29T12:06:53;22.34;55.61
67862;DHT22;54665;51.462;6.698;2022-07-29T12:09:18;22.40;56.39
67862;DHT22;54665;51.462;6.698;2022-07-29T12:11:48;22.47;56.06
67862;DHT22;54665;51.462;6.698;2022-07-29T12:16:51;22.21;57.41
67862;DHT22;54665;51.462;6.698;2022-07-29T12:19:20;22.12;56.94
67862;DHT22;54665;51.462;6.698;2022-07-29T12:21:54;22.06;56.89
67862;DHT22;54665;51.462;6.698;2022-07-29T12:24:20;21.96;56.86
67862;DHT22;54665;51.462;6.698;2022-07-29T12:29:16;21.78;57.29
67862;DHT22;54665;51.462;6.698;2022-07-29T12:31:42;21.79;57.64
67862;DHT22;54665;51.462;6.698;2022-07-29T12:34:10;21.90;57.24
67862;DHT22;54665;51.462;6.698;2022-07-29T12:36:36;22.04;56.32
67862;DHT22;54665;51.462;6.698;2022-07-29T12:39:02;21.86;55.42
67862;DHT22;54665;51.462;6.698;2022-07-29T12:41:29;21.69;55.72
67862;DHT22;54665;51.462;6.698;2022-07-29T12:43:54;21.90;56.10
67862;DHT22;54665;51.462;6.698;2022-07-29T12:46:20;22.16;56.46
67862;DHT22;54665;51.462;6.698;2022-07-29T12:48:50;22.24;56.15
67862;DHT22;54665;51.462;6.698;2022-07-29T12:51:28;22.33;55.81
67862;DHT22;54665;51.462;6.698;2022-07-29T12:54:12;22.54;55.55
67862;DHT22;54665;51.462;6.698;2022-07-29T12:56:43;22.74;53.79
67862;DHT22;54665;51.462;6.698;2022-07-29T12:59:17;22.91;52.68
67862;DHT22;54665;51.462;6.698;2022-07-29T13:01:43;22.71;54.31
67862;DHT22;54665;51.462;6.698;2022-07-29T13:04:09;22.57;53.97
67862;DHT22;54665;51.462;6.698;2022-07-29T13:06:39;22.44;53.58
67862;DHT22;54665;51.462;6.698;2022-07-29T13:09:14;22.33;54.94
67862;DHT22;54665;51.462;6.698;2022-07-29T13:11:42;22.12;56.17
67862;DHT22;54665;51.462;6.698;2022-07-29T13:14:09;22.03;56.44
67862;DHT22;54665;51.462;6.698;2022-07-29T13:16:36;21.99;56.36
67862;DHT22;54665;51.462;6.698;2022-07-29T13:19:11;21.92;56.83
67862;DHT22;54665;51.462;6.698;2022-07-29T13:21:38;21.97;57.09
67862;DHT22;54665;51.462;6.698;2022-07-29T13:24:05;22.13;56.15
67862;DHT22;54665;51.462;6.698;2022-07-29T13:26:31;22.21;56.89
67862;DHT22;54665;51.462;6.698;2022-07-29T13:28:57;22.55;55.43
67862;DHT22;54665;51.462;6.698;2022-07-29T13:31:22;22.67;55.27
67862;DHT22;54665;51.462;6.698;2022-07-29T13:33:48;22.67;55.44
67862;DHT22;54665;51.462;6.698;2022-07-29T13:36:13;22.57;56.36
67862;DHT22;54665;51.462;6.698;2022-07-29T13:38:39;22.48;55.95
67862;DHT22;54665;51.462;6.698;2022-07-29T13:41:04;22.75;55.61
67862;DHT22;54665;51.462;6.698;2022-07-29T13:43:29;22.72;54.96
67862;DHT22;54665;51.462;6.698;2022-07-29T13:45:55;22.75;55.58
67862;DHT22;54665;51.462;6.698;2022-07-29T13:48:20;23.12;55.71
67862;DHT22;54665;51.462;6.698;2022-07-29T13:50:45;23.01;54.98
67862;DHT22;54665;51.462;6.698;2022-07-29T13:53:12;23.08;55.23
67862;DHT22;54665;51.462;6.698;2022-07-29T13:55:37;22.90;54.89
67862;DHT22;54665;51.462;6.698;2022-07-29T13:58:03;22.76;56.32
67862;DHT22;54665;51.462;6.698;2022-07-29T14:00:28;23.22;54.29
67862;DHT22;54665;51.462;6.698;2022-07-29T14:02:54;23.63;53.46
67862;DHT22;54665;51.462;6.698;2022-07-29T14:05:20;23.32;54.37
67862;DHT22;54665;51.462;6.698;2022-07-29T14:07:45;23.83;52.54
67862;DHT22;54665;51.462;6.698;2022-07-29T14:10:10;23.96;52.20
67862;DHT22;54665;51.462;6.698;2022-07-29T14:12:36;24.08;51.35
67862;DHT22;54665;51.462;6.698;2022-07-29T14:15:01;23.94;51.04
67862;DHT22;54665;51.462;6.698;2022-07-29T14:17:27;24.22;50.93
67862;DHT22;54665;51.462;6.698;2022-07-29T14:19:52;24.22;51.38
67862;DHT22;54665;51.462;6.698;2022-07-29T14:22:18;24.03;51.36
67862;DHT22;54665;51.462;6.698;2022-07-29T14:24:45;23.94;51.22
67862;DHT22;54665;51.462;6.698;2022-07-29T14:27:10;24.08;49.14
67862;DHT22;54665;51.462;6.698;2022-07-29T14:29:36;24.45;47.48
67862;DHT22;54665;51.462;6.698;2022-07-29T14:32:02;24.52;45.94
67862;DHT22;54665;51.462;6.698;2022-07-29T14:34:28;24.89;45.82
67862;DHT22;54665;51.462;6.698;2022-07-29T14:36:53;25.02;46.88
67862;DHT22;54665;51.462;6.698;2022-07-29T14:39:21;25.15;45.66
67862;DHT22;54665;51.462;6.698;2022-07-29T14:41:48;25.20;47.01
67862;DHT22;54665;51.462;6.698;2022-07-29T14:44:14;25.43;46.14
67862;DHT22;54665;51.462;6.698;2022-07-29T14:46:40;24.73;47.96
67862;DHT22;54665;51.462;6.698;2022-07-29T14:49:05;24.65;48.41
67862;DHT22;54665;51.462;6.698;2022-07-29T14:51:31;24.72;48.24
67862;DHT22;54665;51.462;6.698;2022-07-29T14:53:57;24.44;48.10
67862;DHT22;54665;51.462;6.698;2022-07-29T14:56:22;24.49;45.15
67862;DHT22;54665;51.462;6.698;2022-07-29T14:58:48;23.86;45.14
67862;DHT22;54665;51.462;6.698;2022-07-29T15:01:14;23.67;48.32
67862;DHT22;54665;51.462;6.698;2022-07-29T15:03:40;24.17;47.29
67862;DHT22;54665;51.462;6.698;2022-07-29T15:06:05;24.71;46.04
67862;DHT22;54665;51.462;6.698;2022-07-29T15:08:31;24.93;45.28
67862;DHT22;54665;51.462;6.698;2022-07-29T15:10:56;25.47;44.20
67862;DHT22;54665;51.462;6.698;2022-07-29T15:13:25;25.60;42.53
67862;DHT22;54665;51.462;6.698;2022-07-29T15:15:50;25.57;42.67
67862;DHT22;54665;51.462;6.698;2022-07-29T15:18:16;25.58;42.68
67862;DHT22;54665;51.462;6.698;2022-07-29T15:20:42;25.61;42.74
67862;DHT22;54665;51.462;6.698;2022-07-29T15:23:07;25.87;43.16
67862;DHT22;54665;51.462;6.698;2022-07-29T15:25:35;25.82;43.27
67862;DHT22;54665;51.462;6.698;2022-07-29T15:28:02;25.87;44.16
67862;DHT22;54665;51.462;6.698;2022-07-29T15:30:32;26.04;42.75
67862;DHT22;54665;51.462;6.698;2022-07-29T15:32:58;26.47;43.11
67862;DHT22;54665;51.462;6.698;2022-07-29T15:35:24;26.38;42.56
67862;DHT22;54665;51.462;6.698;2022-07-29T15:37:49;26.11;43.45
67862;DHT22;54665;51.462;6.698;2022-07-29T15:40:15;26.31;43.13
67862;DHT22;54665;51.462;6.698;2022-07-29T15:42:40;26.35;43.54
67862;DHT22;54665;51.462;6.698;2022-07-29T15:45:06;26.40;43.35
67862;DHT22;54665;51.462;6.698;2022-07-29T15:47:34;25.56;46.23
67862;DHT22;54665;51.462;6.698;2022-07-29T15:50:00;25.82;45.14
67862;DHT22;54665;51.462;6.698;2022-07-29T15:52:26;26.38;44.16
67862;DHT22;54665;51.462;6.698;2022-07-29T15:54:55;26.83;42.77
67862;DHT22;54665;51.462;6.698;2022-07-29T15:57:21;27.01;43.10
67862;DHT22;54665;51.462;6.698;2022-07-29T15:59:47;26.80;42.62
67862;DHT22;54665;51.462;6.698;2022-07-29T16:02:12;25.84;44.37
67862;DHT22;54665;51.462;6.698;2022-07-29T16:04:38;26.04;45.34
67862;DHT22;54665;51.462;6.698;2022-07-29T16:07:04;25.61;45.00
67862;DHT22;54665;51.462;6.698;2022-07-29T16:09:29;25.38;46.59
67862;DHT22;54665;51.462;6.698;2022-07-29T16:11:55;25.36;46.59
67862;DHT22;54665;51.462;6.698;2022-07-29T16:14:21;25.27;47.33
67862;DHT22;54665;51.462;6.698;2022-07-29T16:16:47;25.46;46.63
67862;DHT22;54665;51.462;6.698;2022-07-29T16:19:13;25.40;46.98
67862;DHT22;54665;51.462;6.698;2022-07-29T16:21:38;25.34;46.84
67862;DHT22;54665;51.462;6.698;2022-07-29T16:24:05;25.30;47.65
67862;DHT22;54665;51.462;6.698;2022-07-29T16:26:31;25.37;47.71
67862;DHT22;54665;51.462;6.698;2022-07-29T16:28:57;25.56;46.12